createdAt,value
2022-10-05T00:01:44.827Z,99281.53
2022-10-05T00:04:17.248Z,99278.63
2022-10-05T00:06:48.664Z,99281.09
2022-10-05T00:09:21.059Z,99275.03
2022-10-05T00:11:51.149Z,99266.03
2022-10-05T00:14:21.779Z,99266.16
2022-10-05T00:16:50.975Z,99273.91
2022-10-05T00:19:34.621Z,99271.66
2022-10-05T00:22:12.170Z,99266.28
2022-10-05T00:24:42.329Z,99258.81
2022-10-05T00:27:19.059Z,99252.47
2022-10-05T00:29:49.489Z,99255.91
2022-10-05T00:32:18.729Z,99253.16
2022-10-05T00:34:51.129Z,99266.00
2022-10-05T00:37:19.909Z,99255.78
2022-10-05T00:39:51.369Z,99263.22
2022-10-05T00:42:42.140Z,99260.59
2022-10-05T00:45:15.619Z,99263.38
2022-10-05T00:47:55.860Z,99269.00
2022-10-05T00:50:59.236Z,99265.44
2022-10-05T00:53:42.821Z,99290.47
2022-10-05T00:56:27.130Z,99309.00
2022-10-05T00:59:11.851Z,99295.41
2022-10-05T01:01:48.636Z,99300.94
2022-10-05T01:04:27.279Z,99287.69
2022-10-05T01:07:07.249Z,99297.38
2022-10-05T01:09:48.090Z,99294.09
2022-10-05T01:12:27.001Z,99291.72
2022-10-05T01:15:04.160Z,99289.50
2022-10-05T01:17:42.189Z,99298.19
2022-10-05T01:20:28.869Z,99286.31
2022-10-05T01:23:24.629Z,99291.03
2022-10-05T01:26:09.480Z,99294.34
2022-10-05T01:28:47.209Z,99287.59
2022-10-05T01:31:30.467Z,99278.63
2022-10-05T01:34:11.605Z,99272.81
2022-10-05T01:36:49.064Z,99271.59
2022-10-05T01:39:28.578Z,99262.31
2022-10-05T01:42:08.079Z,99271.47
2022-10-05T01:44:47.130Z,99268.69
2022-10-05T01:47:23.419Z,99258.19
2022-10-05T01:50:01.635Z,99255.44
2022-10-05T01:52:42.450Z,99252.28
2022-10-05T01:55:21.519Z,99241.06
2022-10-05T01:58:03.029Z,99249.78
2022-10-05T02:00:36.929Z,99251.84
2022-10-05T02:03:15.000Z,99252.00
2022-10-05T02:05:52.829Z,99251.31
2022-10-05T02:08:30.249Z,99258.38
2022-10-05T02:11:03.769Z,99261.78
2022-10-05T02:13:38.560Z,99258.34
2022-10-05T02:16:14.700Z,99241.63
2022-10-05T02:18:50.039Z,99244.50
2022-10-05T02:21:20.049Z,99245.19
2022-10-05T02:23:52.468Z,99247.38
2022-10-05T02:26:22.129Z,99251.81
2022-10-05T02:28:54.878Z,99263.72
2022-10-05T02:31:30.375Z,99270.06
2022-10-05T02:34:13.380Z,99266.38
2022-10-05T02:36:44.220Z,99282.09
2022-10-05T02:39:18.079Z,99303.81
2022-10-05T02:41:54.909Z,99295.50
2022-10-05T02:44:34.961Z,99294.81
2022-10-05T02:47:14.858Z,99300.47
2022-10-05T02:49:49.511Z,99303.09
2022-10-05T02:52:27.109Z,99293.00
2022-10-05T02:55:04.019Z,99285.00
2022-10-05T02:57:40.460Z,99272.97
2022-10-05T03:00:15.303Z,99269.38
2022-10-05T03:02:54.348Z,99266.75
2022-10-05T03:05:29.539Z,99267.03
2022-10-05T03:08:04.009Z,99265.09
2022-10-05T03:10:39.483Z,99257.78
2022-10-05T03:13:15.559Z,99260.53
2022-10-05T03:15:59.068Z,99271.59
2022-10-05T03:18:44.439Z,99277.97
2022-10-05T03:21:23.130Z,99289.03
2022-10-05T03:24:09.539Z,99275.50
2022-10-05T03:26:48.301Z,99282.28
2022-10-05T03:29:32.064Z,99281.03
2022-10-05T03:32:08.890Z,99271.06
2022-10-05T03:34:46.779Z,99278.56
2022-10-05T03:37:22.449Z,99264.84
2022-10-05T03:39:56.429Z,99274.69
2022-10-05T03:42:31.982Z,99273.00
2022-10-05T03:45:07.089Z,99256.03
2022-10-05T03:47:45.314Z,99252.69
2022-10-05T03:50:33.529Z,99257.50
2022-10-05T03:53:08.408Z,99270.63
2022-10-05T03:55:42.759Z,99268.00
2022-10-05T03:58:17.709Z,99255.03
2022-10-05T04:00:50.169Z,99259.56
2022-10-05T04:03:23.570Z,99260.41
2022-10-05T04:05:57.870Z,99256.13
2022-10-05T04:08:37.039Z,99256.81
2022-10-05T04:11:11.569Z,99263.44
2022-10-05T04:13:46.329Z,99267.16
2022-10-05T04:16:18.810Z,99266.34
2022-10-05T04:18:51.969Z,99265.78
2022-10-05T04:21:26.389Z,99255.97
2022-10-05T04:24:00.888Z,99255.31
2022-10-05T04:26:41.209Z,99278.91
2022-10-05T04:29:17.970Z,99277.22
2022-10-05T04:31:59.989Z,99283.59
2022-10-05T04:34:45.189Z,99268.97
2022-10-05T04:37:23.381Z,99274.31
2022-10-05T04:40:07.789Z,99272.66
2022-10-05T04:42:41.839Z,99275.28
2022-10-05T04:45:20.079Z,99283.16
2022-10-05T04:48:19.088Z,99300.00
2022-10-05T04:50:59.149Z,99300.44
2022-10-05T04:53:34.779Z,99300.44
2022-10-05T04:56:08.479Z,99289.50
2022-10-05T04:58:57.239Z,99301.41
2022-10-05T05:01:42.728Z,99295.88
2022-10-05T05:04:38.000Z,99305.13
2022-10-05T05:07:19.519Z,99309.56
2022-10-05T05:10:21.869Z,99305.69
2022-10-05T05:12:59.969Z,99314.91
2022-10-05T05:15:38.170Z,99312.84
2022-10-05T05:18:35.518Z,99313.13
2022-10-05T05:21:15.329Z,99322.94
2022-10-05T05:23:52.949Z,99325.13
2022-10-05T05:26:32.760Z,99324.28
2022-10-05T05:29:16.020Z,99315.44
2022-10-05T05:31:51.469Z,99314.47
2022-10-05T05:34:37.209Z,99309.50
2022-10-05T05:37:16.455Z,99313.91
2022-10-05T05:39:59.489Z,99307.72
2022-10-05T05:42:37.289Z,99304.38
2022-10-05T05:45:17.946Z,99319.16
2022-10-05T05:47:54.089Z,99313.22
2022-10-05T05:50:43.280Z,99315.69
2022-10-05T05:53:19.129Z,99322.75
2022-10-05T05:55:51.540Z,99314.75
2022-10-05T05:58:26.829Z,99307.16
2022-10-05T06:00:59.771Z,99313.34
2022-10-05T06:03:38.391Z,99311.69
2022-10-05T06:06:10.845Z,99316.38
2022-10-05T06:08:44.939Z,99302.41
2022-10-05T06:11:19.380Z,99314.94
2022-10-05T06:13:50.319Z,99294.38
2022-10-05T06:16:27.148Z,99299.09
2022-10-05T06:18:59.025Z,99286.50
2022-10-05T06:21:33.601Z,99305.97
2022-10-05T06:24:06.660Z,99311.34
2022-10-05T06:26:48.362Z,99327.31
2022-10-05T06:29:24.549Z,99328.09
2022-10-05T06:32:06.448Z,99326.75
2022-10-05T06:34:52.643Z,99320.69
2022-10-05T06:37:24.529Z,99330.22
2022-10-05T06:40:05.177Z,99339.31
2022-10-05T06:42:53.859Z,99342.19
2022-10-05T06:45:36.688Z,99350.91
2022-10-05T06:48:17.501Z,99330.72
2022-10-05T06:50:54.099Z,99337.06
2022-10-05T06:53:35.626Z,99334.69
2022-10-05T06:56:10.672Z,99334.44
2022-10-05T06:58:50.470Z,99334.16
2022-10-05T07:01:32.509Z,99332.00
2022-10-05T07:04:20.559Z,99334.16
2022-10-05T07:06:54.580Z,99329.56
2022-10-05T07:09:31.629Z,99332.19
2022-10-05T07:12:27.929Z,99334.69
2022-10-05T07:15:09.150Z,99340.19
2022-10-05T07:17:54.230Z,99333.53
2022-10-05T07:20:31.931Z,99332.97
2022-10-05T07:23:25.350Z,99345.66
2022-10-05T07:26:03.369Z,99379.00
2022-10-05T07:28:40.547Z,99387.81
2022-10-05T07:31:15.280Z,99391.66
2022-10-05T07:33:53.459Z,99398.97
2022-10-05T07:36:49.711Z,99406.94
2022-10-05T07:39:58.309Z,99408.47
2022-10-05T07:42:30.119Z,99404.19
2022-10-05T07:45:09.982Z,99396.44
2022-10-05T07:47:45.269Z,99390.00
2022-10-05T07:50:22.091Z,99391.66
2022-10-05T07:52:58.329Z,99388.09
2022-10-05T07:55:29.019Z,99395.81
2022-10-05T07:58:07.478Z,99405.19
2022-10-05T08:00:56.198Z,99432.00
2022-10-05T08:03:34.329Z,99436.88
2022-10-05T08:06:09.521Z,99437.59
2022-10-05T08:08:46.630Z,99437.06
2022-10-05T08:11:18.689Z,99435.13
2022-10-05T08:13:52.440Z,99427.16
2022-10-05T08:16:22.404Z,99444.03
2022-10-05T08:18:58.581Z,99444.53
2022-10-05T08:21:34.619Z,99435.03
2022-10-05T08:24:15.539Z,99432.50
2022-10-05T08:26:53.520Z,99434.38
2022-10-05T08:29:30.009Z,99444.47
2022-10-05T08:32:04.010Z,99448.59
2022-10-05T08:34:38.762Z,99450.28
2022-10-05T08:37:15.099Z,99460.06
2022-10-05T08:39:52.709Z,99472.44
2022-10-05T08:42:49.710Z,99477.44
2022-10-05T08:45:50.256Z,99480.66
2022-10-05T08:48:43.899Z,99481.91
2022-10-05T08:51:44.445Z,99492.97
2022-10-05T08:54:39.738Z,99485.31
2022-10-05T08:57:38.620Z,99495.38
2022-10-05T09:00:13.215Z,99495.53
2022-10-05T09:03:11.819Z,99503.72
2022-10-05T09:06:14.683Z,99511.63
2022-10-05T09:09:21.939Z,99505.09
2022-10-05T09:12:08.429Z,99503.44
2022-10-05T09:15:01.573Z,99503.19
2022-10-05T09:18:08.819Z,99507.47
2022-10-05T09:20:48.309Z,99506.53
2022-10-05T09:23:32.940Z,99515.38
2022-10-05T09:26:25.199Z,99519.38
2022-10-05T09:29:12.529Z,99533.63
2022-10-05T09:32:04.499Z,99544.38
2022-10-05T09:35:06.292Z,99547.44
2022-10-05T09:38:09.839Z,99555.84
2022-10-05T09:41:04.987Z,99569.06
2022-10-05T09:44:03.384Z,99578.59
2022-10-05T09:47:14.669Z,99579.63
2022-10-05T09:50:19.619Z,99566.97
2022-10-05T09:53:20.281Z,99568.50
2022-10-05T09:56:24.432Z,99572.78
2022-10-05T09:59:32.490Z,99578.72
2022-10-05T10:02:20.503Z,99574.78
2022-10-05T10:05:15.860Z,99587.63
2022-10-05T10:07:59.150Z,99589.53
2022-10-05T10:10:57.821Z,99591.25
2022-10-05T10:14:01.652Z,99599.53
2022-10-05T10:16:57.939Z,99607.41
2022-10-05T10:19:59.553Z,99612.97
2022-10-05T10:23:04.370Z,99609.81
2022-10-05T10:26:05.989Z,99617.47
2022-10-05T10:29:10.460Z,99622.59
2022-10-05T10:31:51.149Z,99626.56
2022-10-05T10:34:44.349Z,99626.69
2022-10-05T10:37:34.060Z,99621.44
2022-10-05T10:40:23.660Z,99625.47
2022-10-05T10:43:08.000Z,99635.59
2022-10-05T10:45:49.682Z,99645.84
2022-10-05T10:48:50.170Z,99652.03
2022-10-05T10:51:27.189Z,99652.94
2022-10-05T10:54:33.160Z,99655.97
2022-10-05T10:57:07.309Z,99652.41
2022-10-05T11:00:09.779Z,99661.09
2022-10-05T11:03:05.350Z,99657.16
2022-10-05T11:05:59.829Z,99674.25
2022-10-05T11:09:15.759Z,99680.50
2022-10-05T11:12:26.000Z,99683.53
2022-10-05T11:15:15.000Z,99676.63
2022-10-05T11:18:01.245Z,99681.31
2022-10-05T11:21:05.270Z,99677.97
2022-10-05T11:23:55.849Z,99675.50
2022-10-05T11:26:43.789Z,99676.31
2022-10-05T11:29:48.919Z,99682.97
2022-10-05T11:32:48.260Z,99681.88
2022-10-05T11:35:50.479Z,99671.91
2022-10-05T11:38:42.669Z,99681.16
2022-10-05T11:41:34.401Z,99695.16
2022-10-05T11:44:39.119Z,99689.19
2022-10-05T11:47:18.519Z,99697.63
2022-10-05T11:49:56.270Z,99690.47
2022-10-05T11:52:32.289Z,99697.53
2022-10-05T11:55:24.909Z,99699.28
2022-10-05T11:57:57.964Z,99708.84
2022-10-05T12:00:32.888Z,99718.94
2022-10-05T12:03:21.309Z,99721.56
2022-10-05T12:06:13.579Z,99723.13
2022-10-05T12:08:56.089Z,99737.78
2022-10-05T12:11:44.430Z,99746.09
2022-10-05T12:14:24.399Z,99763.13
2022-10-05T12:17:00.449Z,99763.84
2022-10-05T12:19:36.681Z,99753.59
2022-10-05T12:22:15.729Z,99759.81
2022-10-05T12:25:02.361Z,99753.59
2022-10-05T12:27:35.629Z,99749.47
2022-10-05T12:30:15.431Z,99749.09
2022-10-05T12:33:01.724Z,99750.88
2022-10-05T12:35:48.042Z,99760.56
2022-10-05T12:38:25.200Z,99785.44
2022-10-05T12:41:05.810Z,99818.81
2022-10-05T12:43:44.613Z,99833.38
2022-10-05T12:46:21.669Z,99836.94
2022-10-05T12:49:23.379Z,99827.75
2022-10-05T12:51:59.029Z,99829.00
2022-10-05T12:54:38.975Z,99840.81
2022-10-05T13:57:53.352Z,99891.03
2022-10-05T14:00:26.595Z,99905.56
2022-10-05T14:02:57.933Z,99920.50
2022-10-05T14:05:28.212Z,99923.41
2022-10-05T14:07:59.090Z,99924.16
2022-10-05T14:10:34.189Z,99930.25
2022-10-05T14:13:21.770Z,99939.13
2022-10-05T14:16:21.948Z,99957.06
2022-10-05T14:18:56.219Z,99963.72
2022-10-05T14:21:26.610Z,99972.94
2022-10-05T14:23:57.459Z,99991.47
2022-10-05T14:26:36.729Z,99988.34
2022-10-05T14:29:19.443Z,100003.53
2022-10-05T14:31:52.549Z,100001.16
2022-10-05T14:34:30.041Z,100003.78
2022-10-05T14:37:00.256Z,100000.09
2022-10-05T14:39:30.199Z,100009.50
2022-10-05T14:42:14.019Z,100031.09
2022-10-05T14:44:43.920Z,100020.94
2022-10-05T14:47:23.060Z,100039.22
2022-10-05T14:50:10.906Z,100038.75
2022-10-05T14:52:41.319Z,100058.69
2022-10-05T14:55:31.699Z,100062.13
2022-10-05T14:58:12.814Z,100070.47
2022-10-05T15:00:55.639Z,100069.00
2022-10-05T15:03:42.662Z,100082.13
2022-10-05T15:06:22.659Z,100081.91
2022-10-05T15:09:16.740Z,100079.50
2022-10-05T15:11:52.475Z,100080.72
2022-10-05T15:14:24.324Z,100092.53
2022-10-05T15:16:57.711Z,100103.78
2022-10-05T15:19:34.578Z,100099.16
2022-10-05T15:22:19.078Z,100107.13
2022-10-05T15:24:58.013Z,100112.97
2022-10-05T15:27:37.384Z,100137.59
2022-10-05T15:30:12.027Z,100142.13
2022-10-05T15:32:50.711Z,100144.03
2022-10-05T15:35:54.456Z,100156.44
2022-10-05T15:38:26.735Z,100164.69
2022-10-05T15:41:08.184Z,100176.38
2022-10-05T15:43:50.895Z,100191.56
2022-10-05T15:46:25.848Z,100192.25
2022-10-05T15:49:05.525Z,100193.91
2022-10-05T15:51:50.998Z,100199.91
2022-10-05T15:55:01.994Z,100197.03
2022-10-05T15:57:40.848Z,100209.44
2022-10-05T16:00:14.265Z,100200.31
2022-10-05T16:02:49.427Z,100214.97
2022-10-05T16:05:51.464Z,100228.69
2022-10-05T16:08:54.925Z,100247.63
2022-10-05T16:11:38.608Z,100251.94
2022-10-05T16:14:20.675Z,100270.59
2022-10-05T16:17:04.547Z,100280.41
2022-10-05T16:19:42.945Z,100284.78
2022-10-05T16:22:20.814Z,100297.25
2022-10-05T16:25:12.165Z,100299.91
2022-10-05T16:27:54.515Z,100303.81
2022-10-05T16:30:26.204Z,100299.00
2022-10-05T16:33:05.428Z,100297.22
2022-10-05T16:35:44.648Z,100309.06
2022-10-05T16:38:27.984Z,100323.94
2022-10-05T16:41:05.314Z,100327.19
2022-10-05T16:43:45.461Z,100331.53
2022-10-05T16:46:27.686Z,100343.25
2022-10-05T16:49:05.379Z,100356.50
2022-10-05T16:51:41.604Z,100361.06
2022-10-05T16:54:20.637Z,100370.94
2022-10-05T16:56:54.450Z,100377.81
2022-10-05T17:00:23.821Z,100391.00
2022-10-05T17:03:11.984Z,100398.66
2022-10-05T17:06:06.334Z,100404.25
2022-10-05T17:08:52.879Z,100413.94
2022-10-05T17:11:37.149Z,100410.47
2022-10-05T17:14:21.699Z,100420.81
2022-10-05T17:17:03.374Z,100422.03
2022-10-05T17:19:55.089Z,100433.16
2022-10-05T17:22:28.584Z,100445.22
2022-10-05T17:25:06.846Z,100443.66
2022-10-05T17:27:52.516Z,100458.34
2022-10-05T17:30:24.834Z,100465.47
2022-10-05T17:32:58.533Z,100471.34
2022-10-05T17:35:52.106Z,100471.34
2022-10-05T17:38:23.597Z,100479.38
2022-10-05T17:41:17.045Z,100479.88
2022-10-05T17:44:22.524Z,100483.78
2022-10-05T17:46:56.243Z,100478.59
2022-10-05T17:50:15.774Z,100499.59
2022-10-05T17:53:02.818Z,100507.25
2022-10-05T17:56:03.734Z,100513.03
2022-10-05T17:59:03.495Z,100521.63
2022-10-05T18:01:34.722Z,100532.00
2022-10-05T18:04:33.824Z,100545.88
2022-10-05T18:07:25.437Z,100559.22
2022-10-05T18:10:17.639Z,100556.06
2022-10-05T18:12:49.183Z,100564.53
2022-10-05T18:15:49.394Z,100578.72
2022-10-05T18:18:59.148Z,100587.94
2022-10-05T18:21:40.354Z,100602.44
2022-10-05T18:24:37.394Z,100601.06
2022-10-05T18:27:27.480Z,100615.47
2022-10-05T18:30:07.974Z,100626.78
2022-10-05T18:33:08.614Z,100636.44
2022-10-05T18:35:51.289Z,100645.88
2022-10-05T18:38:34.465Z,100660.78
2022-10-05T18:41:10.247Z,100667.19
2022-10-05T18:43:45.054Z,100675.28
2022-10-05T18:46:29.322Z,100678.44
2022-10-05T18:49:20.524Z,100683.97
2022-10-05T18:51:54.045Z,100686.47
2022-10-05T18:54:38.796Z,100695.97
2022-10-05T18:57:43.364Z,100702.16
2022-10-05T19:00:17.707Z,100704.59
2022-10-05T19:02:52.463Z,100706.22
2022-10-05T19:05:47.032Z,100706.97
2022-10-05T19:08:27.449Z,100710.03
2022-10-05T19:11:02.714Z,100715.69
2022-10-05T19:13:42.359Z,100725.13
2022-10-05T19:16:25.866Z,100733.03
2022-10-05T19:19:11.336Z,100735.03
2022-10-05T19:21:48.651Z,100734.16
2022-10-05T19:24:44.659Z,100746.44
2022-10-05T19:27:25.966Z,100751.06
2022-10-05T19:30:14.930Z,100763.75
2022-10-05T19:32:56.335Z,100757.03
2022-10-05T19:35:32.759Z,100773.78
2022-10-05T19:38:22.278Z,100774.94
2022-10-05T19:40:58.684Z,100780.25
2022-10-05T19:43:47.076Z,100790.75
2022-10-05T19:46:27.782Z,100794.97
2022-10-05T19:48:56.785Z,100806.50
2022-10-05T19:51:31.036Z,100800.91
2022-10-05T19:54:02.894Z,100803.72
2022-10-05T19:56:35.374Z,100815.47
2022-10-05T19:59:14.854Z,100825.41
2022-10-05T20:01:51.343Z,100823.41
2022-10-05T20:04:35.887Z,100834.75
2022-10-05T20:07:05.247Z,100844.81
2022-10-05T20:09:55.434Z,100843.31
2022-10-05T20:12:24.394Z,100851.09
2022-10-05T20:15:36.016Z,100862.06
2022-10-05T20:18:58.651Z,100863.94
2022-10-05T20:21:43.491Z,100867.81
2022-10-05T20:24:14.196Z,100875.56
2022-10-05T20:27:05.407Z,100872.19
2022-10-05T20:29:47.344Z,100875.06
2022-10-05T20:32:22.459Z,100879.81
2022-10-05T20:34:56.360Z,100889.88
2022-10-05T20:37:25.970Z,100898.22
2022-10-05T20:40:00.574Z,100901.03
2022-10-05T20:42:34.509Z,100913.84
2022-10-05T20:45:07.949Z,100916.59
2022-10-05T20:47:38.569Z,100923.59
2022-10-05T20:50:09.687Z,100924.81
2022-10-05T20:52:39.098Z,100939.81
2022-10-05T20:55:09.970Z,100943.63
2022-10-05T20:57:42.463Z,100951.75
2022-10-05T21:00:15.464Z,100959.59
2022-10-05T21:02:47.089Z,100959.84
2022-10-05T21:05:16.400Z,100962.00
2022-10-05T21:08:07.519Z,100966.47
2022-10-05T21:10:38.304Z,100968.50
2022-10-05T21:13:08.040Z,100981.84
2022-10-05T21:15:37.225Z,100985.59
2022-10-05T21:18:07.464Z,100990.16
2022-10-05T21:20:36.394Z,100990.81
2022-10-05T21:23:04.995Z,100992.44
2022-10-05T21:25:34.371Z,100993.25
2022-10-05T21:28:03.167Z,100991.22
2022-10-05T21:30:32.184Z,100998.22
2022-10-05T21:33:00.886Z,101006.38
2022-10-05T21:35:31.458Z,100997.56
2022-10-05T21:37:59.935Z,101010.16
2022-10-05T21:40:28.515Z,101010.34
2022-10-05T21:42:57.001Z,101024.47
2022-10-05T21:45:25.535Z,101018.03
2022-10-05T21:47:54.144Z,101020.41
2022-10-05T21:50:22.679Z,101035.59
2022-10-05T21:52:53.880Z,101037.81
2022-10-05T21:55:23.004Z,101042.50
2022-10-05T21:57:51.524Z,101037.81
2022-10-05T22:00:20.848Z,101046.59
2022-10-05T22:02:49.709Z,101046.59
2022-10-05T22:05:18.349Z,101065.97
2022-10-05T22:07:46.938Z,101066.47
2022-10-05T22:10:18.390Z,101072.28
2022-10-05T22:12:47.786Z,101069.59
2022-10-05T22:15:16.747Z,101073.91
2022-10-05T22:17:46.327Z,101071.28
2022-10-05T22:20:16.024Z,101077.53
2022-10-05T22:22:44.475Z,101081.25
2022-10-05T22:25:13.015Z,101089.03
2022-10-05T22:27:43.559Z,101090.72
2022-10-05T22:30:28.360Z,101080.84
2022-10-05T22:32:59.704Z,101089.56
2022-10-05T22:35:32.095Z,101091.75
2022-10-05T22:38:08.244Z,101083.16
2022-10-05T22:40:41.495Z,101083.66
2022-10-05T22:43:13.304Z,101087.34
2022-10-05T22:45:42.937Z,101083.03
2022-10-05T22:48:12.214Z,101084.81
2022-10-05T22:50:40.834Z,101091.91
2022-10-05T22:53:09.934Z,101092.84
2022-10-05T22:55:38.408Z,101092.09
2022-10-05T22:58:07.274Z,101094.63
2022-10-05T23:00:57.533Z,101100.97
2022-10-05T23:03:27.004Z,101109.69
2022-10-05T23:05:58.736Z,101099.22
2022-10-05T23:08:27.724Z,101110.75
2022-10-05T23:11:02.185Z,101110.03
2022-10-05T23:13:31.385Z,101110.03
2022-10-05T23:16:07.266Z,101109.91
2022-10-05T23:18:35.985Z,101118.13
2022-10-05T23:21:07.695Z,101116.34
2022-10-05T23:23:37.874Z,101118.28
2022-10-05T23:26:08.714Z,101114.81
2022-10-05T23:28:37.229Z,101115.16
2022-10-05T23:31:09.536Z,101115.94
2022-10-05T23:33:38.065Z,101106.34
2022-10-05T23:36:10.144Z,101113.53
2022-10-05T23:38:38.624Z,101123.09
2022-10-05T23:41:08.904Z,101125.78
2022-10-05T23:43:38.333Z,101135.44
2022-10-05T23:46:08.813Z,101135.50
2022-10-05T23:48:38.666Z,101125.19
2022-10-05T23:51:08.264Z,101126.28
2022-10-05T23:53:37.145Z,101132.31
2022-10-05T23:56:06.014Z,101128.84
2022-10-05T23:58:34.538Z,101128.00
